sensor_id;sensor_type;location;lat;lon;timestamp;pressure;altitude;pressure_sealevel;temperature;humidity
43312;BME280;30041;48.300;16.352;2023-08-17T00:01:26;100003.84;;;25.05;55.38
43312;BME280;30041;48.300;16.352;2023-08-17T00:03:51;100013.88;;;25.04;55.24
43312;BME280;30041;48.300;16.352;2023-08-17T00:06:17;100012.50;;;25.02;55.56
43312;BME280;30041;48.300;16.352;2023-08-17T00:08:42;100007.63;;;25.04;55.42
43312;BME280;30041;48.300;16.352;2023-08-17T00:11:08;100007.63;;;25.04;55.37
43312;BME280;30041;48.300;16.352;2023-08-17T00:13:34;100010.88;;;25.01;55.58
43312;BME280;30041;48.300;16.352;2023-08-17T00:16:00;100007.06;;;25.02;55.13
43312;BME280;30041;48.300;16.352;2023-08-17T00:18:25;100012.81;;;25.05;55.24
43312;BME280;30041;48.300;16.352;2023-08-17T00:20:51;100016.84;;;25.03;55.31
43312;BME280;30041;48.300;16.352;2023-08-17T00:23:17;100010.03;;;25.00;55.49
43312;BME280;30041;48.300;16.352;2023-08-17T00:25:42;99996.16;;;24.97;55.37
43312;BME280;30041;48.300;16.352;2023-08-17T00:28:07;99998.13;;;25.01;55.15
43312;BME280;30041;48.300;16.352;2023-08-17T00:30:33;100004.06;;;24.98;55.45
43312;BME280;30041;48.300;16.352;2023-08-17T00:32:59;100008.41;;;24.99;55.54
43312;BME280;30041;48.300;16.352;2023-08-17T00:35:24;100013.25;;;24.97;55.33
43312;BME280;30041;48.300;16.352;2023-08-17T00:37:50;100009.16;;;24.95;55.48
43312;BME280;30041;48.300;16.352;2023-08-17T00:40:15;100001.88;;;25.00;55.23
43312;BME280;30041;48.300;16.352;2023-08-17T00:42:41;100010.28;;;24.99;55.43
43312;BME280;30041;48.300;16.352;2023-08-17T00:45:07;100013.25;;;24.97;55.23
43312;BME280;30041;48.300;16.352;2023-08-17T00:47:32;100022.94;;;24.93;55.40
43312;BME280;30041;48.300;16.352;2023-08-17T00:49:58;100025.38;;;24.90;55.54
43312;BME280;30041;48.300;16.352;2023-08-17T00:52:24;100034.31;;;24.90;55.50
43312;BME280;30041;48.300;16.352;2023-08-17T00:54:50;100030.03;;;24.94;55.19
43312;BME280;30041;48.300;16.352;2023-08-17T00:57:15;100026.41;;;24.89;55.07
43312;BME280;30041;48.300;16.352;2023-08-17T00:59:41;100018.28;;;24.89;55.48
43312;BME280;30041;48.300;16.352;2023-08-17T01:02:07;100024.09;;;24.97;54.92
43312;BME280;30041;48.300;16.352;2023-08-17T01:04:34;100017.28;;;24.95;55.34
43312;BME280;30041;48.300;16.352;2023-08-17T01:07:00;100007.78;;;24.92;55.17
43312;BME280;30041;48.300;16.352;2023-08-17T01:09:26;100012.38;;;24.92;55.19
43312;BME280;30041;48.300;16.352;2023-08-17T01:12:31;100015.38;;;24.95;55.37
43312;BME280;30041;48.300;16.352;2023-08-17T01:15:16;100017.28;;;24.95;55.19
43312;BME280;30041;48.300;16.352;2023-08-17T01:18:33;100008.00;;;24.91;55.20
43312;BME280;30041;48.300;16.352;2023-08-17T01:20:38;100008.25;;;24.89;55.17
43312;BME280;30041;48.300;16.352;2023-08-17T01:23:07;100012.88;;;24.89;55.25
43312;BME280;30041;48.300;16.352;2023-08-17T01:25:32;100015.56;;;24.89;55.16
43312;BME280;30041;48.300;16.352;2023-08-17T01:27:58;100012.06;;;24.88;55.16
43312;BME280;30041;48.300;16.352;2023-08-17T01:30:24;100005.25;;;24.85;55.34
43312;BME280;30041;48.300;16.352;2023-08-17T01:32:54;100002.53;;;24.85;54.97
43312;BME280;30041;48.300;16.352;2023-08-17T01:37:58;99986.84;;;24.88;54.70
43312;BME280;30041;48.300;16.352;2023-08-17T01:40:27;99992.56;;;24.91;54.69
43312;BME280;30041;48.300;16.352;2023-08-17T01:42:54;100001.19;;;24.88;54.67
43312;BME280;30041;48.300;16.352;2023-08-17T01:45:20;100003.91;;;24.88;54.97
43312;BME280;30041;48.300;16.352;2023-08-17T01:47:45;99996.03;;;24.86;54.90
43312;BME280;30041;48.300;16.352;2023-08-17T01:50:11;99993.59;;;24.85;55.17
43312;BME280;30041;48.300;16.352;2023-08-17T01:52:36;100004.97;;;24.87;54.85
43312;BME280;30041;48.300;16.352;2023-08-17T01:55:02;100007.94;;;24.85;55.17
43312;BME280;30041;48.300;16.352;2023-08-17T01:57:27;100007.69;;;24.87;55.05
43312;BME280;30041;48.300;16.352;2023-08-17T01:59:53;100001.97;;;24.83;55.34
43312;BME280;30041;48.300;16.352;2023-08-17T02:02:18;100001.63;;;24.80;55.28
43312;BME280;30041;48.300;16.352;2023-08-17T02:04:44;99994.63;;;24.84;54.86
43312;BME280;30041;48.300;16.352;2023-08-17T02:07:09;99992.44;;;24.81;55.09
43312;BME280;30041;48.300;16.352;2023-08-17T02:09:35;99984.88;;;24.83;54.80
43312;BME280;30041;48.300;16.352;2023-08-17T02:12:00;99982.66;;;24.80;54.97
43312;BME280;30041;48.300;16.352;2023-08-17T02:14:26;99984.31;;;24.81;55.13
43312;BME280;30041;48.300;16.352;2023-08-17T02:16:52;99983.78;;;24.84;54.99
43312;BME280;30041;48.300;16.352;2023-08-17T02:19:18;99979.94;;;24.80;55.15
43312;BME280;30041;48.300;16.352;2023-08-17T02:21:43;99982.66;;;24.80;54.89
43312;BME280;30041;48.300;16.352;2023-08-17T02:24:08;99985.63;;;24.78;54.92
43312;BME280;30041;48.300;16.352;2023-08-17T02:26:34;99988.59;;;24.77;54.89
43312;BME280;30041;48.300;16.352;2023-08-17T02:28:59;99983.13;;;24.72;55.07
43312;BME280;30041;48.300;16.352;2023-08-17T02:31:25;99989.59;;;24.71;55.11
43312;BME280;30041;48.300;16.352;2023-08-17T02:33:51;99990.97;;;24.73;54.96
43312;BME280;30041;48.300;16.352;2023-08-17T02:36:16;99984.22;;;24.76;54.91
43312;BME280;30041;48.300;16.352;2023-08-17T02:38:41;99980.94;;;24.74;54.87
43312;BME280;30041;48.300;16.352;2023-08-17T02:41:07;99988.03;;;24.75;54.99
43312;BME280;30041;48.300;16.352;2023-08-17T02:43:32;99990.97;;;24.73;54.88
43312;BME280;30041;48.300;16.352;2023-08-17T02:45:58;99993.19;;;24.76;55.05
43312;BME280;30041;48.300;16.352;2023-08-17T02:48:23;99989.66;;;24.76;54.82
43312;BME280;30041;48.300;16.352;2023-08-17T02:50:49;99996.38;;;24.73;54.71
43312;BME280;30041;48.300;16.352;2023-08-17T02:53:14;99997.47;;;24.72;54.89
43312;BME280;30041;48.300;16.352;2023-08-17T02:55:40;100001.81;;;24.73;54.76
43312;BME280;30041;48.300;16.352;2023-08-17T02:58:05;100003.72;;;24.73;54.59
43312;BME280;30041;48.300;16.352;2023-08-17T03:00:31;100007.75;;;24.70;54.82
43312;BME280;30041;48.300;16.352;2023-08-17T03:02:56;100008.56;;;24.71;54.55
43312;BME280;30041;48.300;16.352;2023-08-17T03:05:22;100003.66;;;24.68;54.59
43312;BME280;30041;48.300;16.352;2023-08-17T03:07:47;99997.16;;;24.69;54.69
43312;BME280;30041;48.300;16.352;2023-08-17T03:10:12;99991.47;;;24.70;54.94
43312;BME280;30041;48.300;16.352;2023-08-17T03:12:38;99993.38;;;24.70;54.54
43312;BME280;30041;48.300;16.352;2023-08-17T03:15:05;99994.19;;;24.70;54.79
43312;BME280;30041;48.300;16.352;2023-08-17T03:17:31;99996.84;;;24.65;54.99
43312;BME280;30041;48.300;16.352;2023-08-17T03:19:56;99996.56;;;24.67;54.93
43312;BME280;30041;48.300;16.352;2023-08-17T03:22:22;99993.28;;;24.64;55.05
43312;BME280;30041;48.300;16.352;2023-08-17T03:24:47;99988.72;;;24.65;54.81
43312;BME280;30041;48.300;16.352;2023-08-17T03:27:13;99997.66;;;24.65;54.74
43312;BME280;30041;48.300;16.352;2023-08-17T03:29:38;99994.13;;;24.65;54.93
43312;BME280;30041;48.300;16.352;2023-08-17T03:32:04;99990.56;;;24.64;54.80
43312;BME280;30041;48.300;16.352;2023-08-17T03:34:29;99988.72;;;24.65;54.67
43312;BME280;30041;48.300;16.352;2023-08-17T03:36:55;99989.53;;;24.65;54.75
43312;BME280;30041;48.300;16.352;2023-08-17T03:39:20;99992.19;;;24.60;55.14
43312;BME280;30041;48.300;16.352;2023-08-17T03:41:46;99995.19;;;24.64;54.81
43312;BME280;30041;48.300;16.352;2023-08-17T03:44:11;99990.00;;;24.62;54.74
43312;BME280;30041;48.300;16.352;2023-08-17T03:46:37;99986.47;;;24.62;55.04
43312;BME280;30041;48.300;16.352;2023-08-17T03:49:02;99995.44;;;24.62;55.07
43312;BME280;30041;48.300;16.352;2023-08-17T03:51:28;99998.41;;;24.61;54.82
43312;BME280;30041;48.300;16.352;2023-08-17T03:53:53;99992.72;;;24.62;54.94
43312;BME280;30041;48.300;16.352;2023-08-17T03:56:18;99991.59;;;24.58;55.20
43312;BME280;30041;48.300;16.352;2023-08-17T03:58:44;99996.50;;;24.61;55.02
43312;BME280;30041;48.300;16.352;2023-08-17T04:01:09;99994.03;;;24.60;55.10
43312;BME280;30041;48.300;16.352;2023-08-17T04:03:35;99993.81;;;24.61;54.75
43312;BME280;30041;48.300;16.352;2023-08-17T04:06:07;99993.00;;;24.61;54.67
43312;BME280;30041;48.300;16.352;2023-08-17T04:08:32;99989.19;;;24.62;55.01
43312;BME280;30041;48.300;16.352;2023-08-17T04:10:58;100003.81;;;24.61;54.69
43312;BME280;30041;48.300;16.352;2023-08-17T04:13:23;100007.09;;;24.63;54.67
43312;BME280;30041;48.300;16.352;2023-08-17T04:15:49;100009.25;;;24.61;54.88
43312;BME280;30041;48.300;16.352;2023-08-17T04:18:14;100008.44;;;24.60;54.75
43312;BME280;30041;48.300;16.352;2023-08-17T04:20:40;100009.50;;;24.59;54.97
43312;BME280;30041;48.300;16.352;2023-08-17T04:23:05;100016.00;;;24.58;54.79
43312;BME280;30041;48.300;16.352;2023-08-17T04:25:31;100012.44;;;24.58;54.85
43312;BME280;30041;48.300;16.352;2023-08-17T04:27:56;100012.19;;;24.59;54.65
43312;BME280;30041;48.300;16.352;2023-08-17T04:30:21;100010.00;;;24.56;54.77
43312;BME280;30041;48.300;16.352;2023-08-17T04:32:47;100021.88;;;24.55;54.95
43312;BME280;30041;48.300;16.352;2023-08-17T04:35:12;100019.44;;;24.54;54.91
43312;BME280;30041;48.300;16.352;2023-08-17T04:37:38;100025.69;;;24.54;55.19
43312;BME280;30041;48.300;16.352;2023-08-17T04:40:04;100027.56;;;24.54;55.06
43312;BME280;30041;48.300;16.352;2023-08-17T04:42:31;100033.22;;;24.52;55.10
43312;BME280;30041;48.300;16.352;2023-08-17T04:44:56;100036.53;;;24.54;55.07
43312;BME280;30041;48.300;16.352;2023-08-17T04:47:21;100028.06;;;24.51;55.15
43312;BME280;30041;48.300;16.352;2023-08-17T04:49:47;100030.75;;;24.51;55.13
43312;BME280;30041;48.300;16.352;2023-08-17T04:52:12;100024.03;;;24.53;55.15
43312;BME280;30041;48.300;16.352;2023-08-17T04:54:38;100024.88;;;24.54;54.95
43312;BME280;30041;48.300;16.352;2023-08-17T04:57:03;100017.56;;;24.54;55.02
43312;BME280;30041;48.300;16.352;2023-08-17T04:59:29;100015.66;;;24.55;54.98
43312;BME280;30041;48.300;16.352;2023-08-17T05:01:54;100013.75;;;24.55;55.22
43312;BME280;30041;48.300;16.352;2023-08-17T05:04:20;100023.78;;;24.55;55.25
43312;BME280;30041;48.300;16.352;2023-08-17T05:06:45;100022.47;;;24.57;55.58
43312;BME280;30041;48.300;16.352;2023-08-17T05:09:11;100024.13;;;24.58;55.47
43312;BME280;30041;48.300;16.352;2023-08-17T05:11:36;100020.84;;;24.56;55.38
43312;BME280;30041;48.300;16.352;2023-08-17T05:14:02;100024.59;;;24.55;55.56
43312;BME280;30041;48.300;16.352;2023-08-17T05:16:27;100026.50;;;24.55;55.80
43312;BME280;30041;48.300;16.352;2023-08-17T05:18:53;100032.16;;;24.53;55.88
43312;BME280;30041;48.300;16.352;2023-08-17T05:21:18;100034.63;;;24.55;55.71
43312;BME280;30041;48.300;16.352;2023-08-17T05:23:43;100045.03;;;24.46;55.88
43312;BME280;30041;48.300;16.352;2023-08-17T05:26:09;100036.09;;;24.45;56.06
43312;BME280;30041;48.300;16.352;2023-08-17T05:28:34;100053.75;;;24.48;55.89
43312;BME280;30041;48.300;16.352;2023-08-17T05:31:06;100049.41;;;24.47;55.65
43312;BME280;30041;48.300;16.352;2023-08-17T05:33:31;100047.97;;;24.44;55.91
43312;BME280;30041;48.300;16.352;2023-08-17T05:35:57;100037.41;;;24.43;56.00
43312;BME280;30041;48.300;16.352;2023-08-17T05:38:23;100039.03;;;24.44;56.07
43312;BME280;30041;48.300;16.352;2023-08-17T05:40:57;100044.72;;;24.26;57.35
43312;BME280;30041;48.300;16.352;2023-08-17T05:43:23;100041.09;;;24.03;58.28
43312;BME280;30041;48.300;16.352;2023-08-17T05:45:49;100047.97;;;23.94;58.92
43312;BME280;30041;48.300;16.352;2023-08-17T05:48:14;100039.09;;;23.81;59.82
43312;BME280;30041;48.300;16.352;2023-08-17T05:50:43;100043.00;;;23.74;60.50
43312;BME280;30041;48.300;16.352;2023-08-17T05:53:08;100047.25;;;23.70;60.91
43312;BME280;30041;48.300;16.352;2023-08-17T05:55:34;100051.34;;;23.72;61.11
43312;BME280;30041;48.300;16.352;2023-08-17T05:57:59;100049.94;;;23.70;61.45
43312;BME280;30041;48.300;16.352;2023-08-17T06:00:25;100048.06;;;23.70;61.54
43312;BME280;30041;48.300;16.352;2023-08-17T06:02:50;100047.59;;;23.73;61.66
43312;BME280;30041;48.300;16.352;2023-08-17T06:05:16;100047.81;;;23.72;62.03
43312;BME280;30041;48.300;16.352;2023-08-17T06:07:42;100049.13;;;23.69;62.10
43312;BME280;30041;48.300;16.352;2023-08-17T06:10:07;100043.13;;;23.67;62.42
43312;BME280;30041;48.300;16.352;2023-08-17T06:12:33;100038.03;;;23.82;62.34
43312;BME280;30041;48.300;16.352;2023-08-17T06:14:58;100036.88;;;23.78;62.61
43312;BME280;30041;48.300;16.352;2023-08-17T06:17:24;100042.59;;;23.82;62.63
43312;BME280;30041;48.300;16.352;2023-08-17T06:19:50;100037.09;;;23.77;63.09
43312;BME280;30041;48.300;16.352;2023-08-17T06:22:15;100038.28;;;23.81;63.29
43312;BME280;30041;48.300;16.352;2023-08-17T06:24:41;100026.53;;;23.75;63.66
43312;BME280;30041;48.300;16.352;2023-08-17T06:27:06;100037.34;;;23.75;64.12
43312;BME280;30041;48.300;16.352;2023-08-17T06:29:31;100037.34;;;23.75;63.84
43312;BME280;30041;48.300;16.352;2023-08-17T06:31:57;100039.59;;;23.78;64.07
43312;BME280;30041;48.300;16.352;2023-08-17T06:34:22;100037.94;;;23.77;63.89
43312;BME280;30041;48.300;16.352;2023-08-17T06:36:58;100039.09;;;23.81;63.54
43312;BME280;30041;48.300;16.352;2023-08-17T06:39:24;100037.31;;;23.87;63.50
43312;BME280;30041;48.300;16.352;2023-08-17T06:41:50;100038.13;;;23.88;63.69
43312;BME280;30041;48.300;16.352;2023-08-17T06:44:15;100038.69;;;23.90;63.96
43312;BME280;30041;48.300;16.352;2023-08-17T06:46:40;100030.06;;;23.93;63.75
43312;BME280;30041;48.300;16.352;2023-08-17T06:49:06;100026.47;;;24.04;63.53
43312;BME280;30041;48.300;16.352;2023-08-17T06:51:32;100026.06;;;24.12;62.97
43312;BME280;30041;48.300;16.352;2023-08-17T06:53:57;100033.97;;;24.14;63.12
43312;BME280;30041;48.300;16.352;2023-08-17T06:56:23;100038.97;;;24.05;63.33
43312;BME280;30041;48.300;16.352;2023-08-17T06:58:48;100037.81;;;24.01;63.00
43312;BME280;30041;48.300;16.352;2023-08-17T07:01:14;100043.00;;;24.02;63.39
43312;BME280;30041;48.300;16.352;2023-08-17T07:03:39;100042.72;;;24.04;63.44
43312;BME280;30041;48.300;16.352;2023-08-17T07:06:05;100046.50;;;24.03;63.49
43312;BME280;30041;48.300;16.352;2023-08-17T07:08:31;100049.69;;;24.00;63.98
43312;BME280;30041;48.300;16.352;2023-08-17T07:10:56;100045.94;;;24.01;63.88
43312;BME280;30041;48.300;16.352;2023-08-17T07:13:21;100040.16;;;23.97;63.58
43312;BME280;30041;48.300;16.352;2023-08-17T07:15:47;100055.22;;;24.05;63.97
43312;BME280;30041;48.300;16.352;2023-08-17T07:18:12;100056.59;;;24.08;63.49
43312;BME280;30041;48.300;16.352;2023-08-17T07:20:38;100054.22;;;24.11;63.28
43312;BME280;30041;48.300;16.352;2023-08-17T07:23:03;100056.38;;;24.09;63.16
43312;BME280;30041;48.300;16.352;2023-08-17T07:25:29;100057.25;;;24.15;62.79
43312;BME280;30041;48.300;16.352;2023-08-17T07:27:54;100055.06;;;24.12;62.93
43312;BME280;30041;48.300;16.352;2023-08-17T07:30:20;100059.63;;;24.11;62.94
43312;BME280;30041;48.300;16.352;2023-08-17T07:32:45;100056.38;;;24.09;63.61
43312;BME280;30041;48.300;16.352;2023-08-17T07:35:11;100063.66;;;24.09;63.06
43312;BME280;30041;48.300;16.352;2023-08-17T07:37:36;100065.03;;;24.11;63.10
43312;BME280;30041;48.300;16.352;2023-08-17T07:40:02;100065.88;;;24.12;62.54
43312;BME280;30041;48.300;16.352;2023-08-17T07:42:27;100064.56;;;24.14;62.99
43312;BME280;30041;48.300;16.352;2023-08-17T07:44:53;100062.44;;;24.16;62.65
43312;BME280;30041;48.300;16.352;2023-08-17T07:47:18;100056.22;;;24.16;62.48
43312;BME280;30041;48.300;16.352;2023-08-17T07:49:44;100064.56;;;24.14;62.99
43312;BME280;30041;48.300;16.352;2023-08-17T07:52:09;100066.31;;;24.20;62.82
43312;BME280;30041;48.300;16.352;2023-08-17T07:54:35;100067.53;;;24.30;61.92
43312;BME280;30041;48.300;16.352;2023-08-17T07:57:00;100069.16;;;24.31;62.57
43312;BME280;30041;48.300;16.352;2023-08-17T07:59:26;100069.16;;;24.31;62.65
43312;BME280;30041;48.300;16.352;2023-08-17T08:01:51;100062.44;;;24.33;62.15
43312;BME280;30041;48.300;16.352;2023-08-17T08:04:17;100065.41;;;24.32;61.97
43312;BME280;30041;48.300;16.352;2023-08-17T08:06:43;100065.97;;;24.34;62.02
43312;BME280;30041;48.300;16.352;2023-08-17T08:09:08;100062.44;;;24.33;61.73
43312;BME280;30041;48.300;16.352;2023-08-17T08:11:34;100061.13;;;24.36;61.60
43312;BME280;30041;48.300;16.352;2023-08-17T08:13:59;100061.31;;;24.29;61.63
43312;BME280;30041;48.300;16.352;2023-08-17T08:16:25;100056.13;;;24.28;61.62
43312;BME280;30041;48.300;16.352;2023-08-17T08:18:50;100057.44;;;24.25;62.11
43312;BME280;30041;48.300;16.352;2023-08-17T08:21:16;100062.84;;;24.25;61.99
43312;BME280;30041;48.300;16.352;2023-08-17T08:23:41;100060.72;;;24.27;62.16
43312;BME280;30041;48.300;16.352;2023-08-17T08:26:06;100060.47;;;24.29;62.03
43312;BME280;30041;48.300;16.352;2023-08-17T08:28:32;100062.34;;;24.28;62.53
43312;BME280;30041;48.300;16.352;2023-08-17T08:31:02;100061.31;;;24.29;62.79
43312;BME280;30041;48.300;16.352;2023-08-17T08:33:27;100064.00;;;24.29;62.61
43312;BME280;30041;48.300;16.352;2023-08-17T08:35:53;100059.97;;;24.32;62.51
43312;BME280;30041;48.300;16.352;2023-08-17T08:38:18;100065.13;;;24.33;62.25
43312;BME280;30041;48.300;16.352;2023-08-17T08:40:46;100065.41;;;24.32;62.11
43312;BME280;30041;48.300;16.352;2023-08-17T08:43:12;100065.13;;;24.33;62.36
43312;BME280;30041;48.300;16.352;2023-08-17T08:45:38;100062.75;;;24.37;62.12
43312;BME280;30041;48.300;16.352;2023-08-17T08:48:08;100066.28;;;24.37;61.44
43312;BME280;30041;48.300;16.352;2023-08-17T08:50:35;100064.66;;;24.36;61.78
43312;BME280;30041;48.300;16.352;2023-08-17T08:53:02;100069.81;;;24.38;61.98
43312;BME280;30041;48.300;16.352;2023-08-17T08:55:37;100069.00;;;24.37;61.84
43312;BME280;30041;48.300;16.352;2023-08-17T08:58:07;100059.47;;;24.35;61.11
43312;BME280;30041;48.300;16.352;2023-08-17T09:00:33;100064.91;;;24.35;61.70
43312;BME280;30041;48.300;16.352;2023-08-17T09:02:59;100055.44;;;24.37;61.90
43312;BME280;30041;48.300;16.352;2023-08-17T09:05:25;100054.88;;;24.35;61.79
43312;BME280;30041;48.300;16.352;2023-08-17T09:07:52;100053.00;;;24.36;61.51
43312;BME280;30041;48.300;16.352;2023-08-17T09:10:17;100055.44;;;24.37;61.77
43312;BME280;30041;48.300;16.352;2023-08-17T09:12:46;100055.72;;;24.36;61.10
43312;BME280;30041;48.300;16.352;2023-08-17T09:15:12;100051.00;;;24.31;61.90
43312;BME280;30041;48.300;16.352;2023-08-17T09:17:37;100059.97;;;24.32;61.70
43312;BME280;30041;48.300;16.352;2023-08-17T09:20:03;100055.88;;;24.29;61.80
43312;BME280;30041;48.300;16.352;2023-08-17T09:22:47;100050.94;;;24.26;61.38
43312;BME280;30041;48.300;16.352;2023-08-17T09:25:22;100049.63;;;24.29;61.48
43312;BME280;30041;48.300;16.352;2023-08-17T09:27:47;100052.91;;;24.31;61.75
43312;BME280;30041;48.300;16.352;2023-08-17T09:30:13;100050.78;;;24.33;62.00
43312;BME280;30041;48.300;16.352;2023-08-17T09:32:38;100045.38;;;24.33;62.36
43312;BME280;30041;48.300;16.352;2023-08-17T09:35:05;100047.84;;;24.34;61.96
43312;BME280;30041;48.300;16.352;2023-08-17T09:37:32;100043.47;;;24.33;61.35
43312;BME280;30041;48.300;16.352;2023-08-17T09:39:58;100041.59;;;24.34;61.54
43312;BME280;30041;48.300;16.352;2023-08-17T09:42:23;100035.44;;;24.38;61.35
43312;BME280;30041;48.300;16.352;2023-08-17T09:44:49;100037.56;;;24.36;61.01
43312;BME280;30041;48.300;16.352;2023-08-17T09:47:16;100040.53;;;24.35;61.11
43312;BME280;30041;48.300;16.352;2023-08-17T09:49:42;100034.59;;;24.38;61.17
43312;BME280;30041;48.300;16.352;2023-08-17T09:52:07;100034.88;;;24.36;60.93
43312;BME280;30041;48.300;16.352;2023-08-17T09:54:33;100036.75;;;24.36;60.97
43312;BME280;30041;48.300;16.352;2023-08-17T09:56:59;100036.25;;;24.39;61.06
43312;BME280;30041;48.300;16.352;2023-08-17T09:59:24;100029.50;;;24.41;60.86
43312;BME280;30041;48.300;16.352;2023-08-17T10:01:51;100034.69;;;24.43;60.85
43312;BME280;30041;48.300;16.352;2023-08-17T10:04:23;100027.97;;;24.45;60.54
43312;BME280;30041;48.300;16.352;2023-08-17T10:06:52;100024.91;;;24.42;60.67
43312;BME280;30041;48.300;16.352;2023-08-17T10:09:24;100023.84;;;24.43;60.70
43312;BME280;30041;48.300;16.352;2023-08-17T10:11:51;100023.00;;;24.42;60.64
43312;BME280;30041;48.300;16.352;2023-08-17T10:14:22;100023.28;;;24.41;60.44
43312;BME280;30041;48.300;16.352;2023-08-17T10:16:57;100020.00;;;24.39;60.70
43312;BME280;30041;48.300;16.352;2023-08-17T10:19:33;100015.97;;;24.41;60.72
43312;BME280;30041;48.300;16.352;2023-08-17T10:22:13;100011.63;;;24.40;60.44
43312;BME280;30041;48.300;16.352;2023-08-17T10:24:42;100013.59;;;24.45;60.09
43312;BME280;30041;48.300;16.352;2023-08-17T10:27:10;100010.03;;;24.44;60.25
43312;BME280;30041;48.300;16.352;2023-08-17T10:29:36;100014.75;;;24.49;60.08
43312;BME280;30041;48.300;16.352;2023-08-17T10:32:05;100008.50;;;24.49;60.26
43312;BME280;30041;48.300;16.352;2023-08-17T10:34:31;100002.28;;;24.48;59.98
43312;BME280;30041;48.300;16.352;2023-08-17T10:36:57;100011.22;;;24.49;59.89
43312;BME280;30041;48.300;16.352;2023-08-17T10:39:28;100004.19;;;24.48;60.02
43312;BME280;30041;48.300;16.352;2023-08-17T10:41:55;99996.06;;;24.48;60.03
43312;BME280;30041;48.300;16.352;2023-08-17T10:44:48;99992.16;;;24.43;60.08
43312;BME280;30041;48.300;16.352;2023-08-17T10:47:28;99990.25;;;24.44;60.17
43312;BME280;30041;48.300;16.352;2023-08-17T10:50:04;99985.41;;;24.46;59.94
43312;BME280;30041;48.300;16.352;2023-08-17T10:52:31;99987.94;;;24.48;59.63
43312;BME280;30041;48.300;16.352;2023-08-17T10:55:03;99987.06;;;24.47;59.84
43312;BME280;30041;48.300;16.352;2023-08-17T10:57:31;99986.22;;;24.47;59.72
43312;BME280;30041;48.300;16.352;2023-08-17T11:00:22;99981.66;;;24.47;59.73
43312;BME280;30041;48.300;16.352;2023-08-17T11:02:59;99977.66;;;24.50;59.82
43312;BME280;30041;48.300;16.352;2023-08-17T11:08:08;99979.28;;;24.51;59.56
43312;BME280;30041;48.300;16.352;2023-08-17T11:10:33;99986.59;;;24.50;59.76
43312;BME280;30041;48.300;16.352;2023-08-17T11:12:59;99976.81;;;24.49;59.53
43312;BME280;30041;48.300;16.352;2023-08-17T11:15:45;99975.75;;;24.50;59.46
43312;BME280;30041;48.300;16.352;2023-08-17T11:18:13;99978.22;;;24.52;59.52
43312;BME280;30041;48.300;16.352;2023-08-17T11:20:40;99977.72;;;24.55;59.28
43312;BME280;30041;48.300;16.352;2023-08-17T11:23:07;99975.00;;;24.55;59.44
43312;BME280;30041;48.300;16.352;2023-08-17T11:25:33;99972.81;;;24.52;59.27
43312;BME280;30041;48.300;16.352;2023-08-17T11:28:02;99979.63;;;24.54;59.28
43312;BME280;30041;48.300;16.352;2023-08-17T11:30:29;99972.81;;;24.52;59.21
43312;BME280;30041;48.300;16.352;2023-08-17T11:32:56;99975.25;;;24.53;58.99
43312;BME280;30041;48.300;16.352;2023-08-17T11:35:21;99975.19;;;24.48;59.37
43312;BME280;30041;48.300;16.352;2023-08-17T11:37:48;99970.34;;;24.50;59.36
43312;BME280;30041;48.300;16.352;2023-08-17T11:40:14;99975.75;;;24.50;59.40
43312;BME280;30041;48.300;16.352;2023-08-17T11:42:40;99967.41;;;24.52;59.20
43312;BME280;30041;48.300;16.352;2023-08-17T11:45:06;99967.97;;;24.54;58.94
43312;BME280;30041;48.300;16.352;2023-08-17T11:47:32;99957.13;;;24.54;59.12
43312;BME280;30041;48.300;16.352;2023-08-17T11:50:05;99963.34;;;24.54;58.92
43312;BME280;30041;48.300;16.352;2023-08-17T11:52:31;99963.34;;;24.54;59.01
43312;BME280;30041;48.300;16.352;2023-08-17T11:54:57;99960.88;;;24.53;58.95
43312;BME280;30041;48.300;16.352;2023-08-17T11:57:23;99960.66;;;24.54;58.73
43312;BME280;30041;48.300;16.352;2023-08-17T11:59:48;99960.66;;;24.54;58.83
43312;BME280;30041;48.300;16.352;2023-08-17T12:02:14;99956.28;;;24.53;59.22
43312;BME280;30041;48.300;16.352;2023-08-17T12:04:39;99952.53;;;24.54;58.80
43312;BME280;30041;48.300;16.352;2023-08-17T12:07:05;99947.34;;;24.53;59.06
43312;BME280;30041;48.300;16.352;2023-08-17T12:09:34;99947.69;;;24.56;58.65
43312;BME280;30041;48.300;16.352;2023-08-17T12:12:01;99949.34;;;24.62;58.56
43312;BME280;30041;48.300;16.352;2023-08-17T12:14:30;99943.69;;;24.64;58.82
43312;BME280;30041;48.300;16.352;2023-08-17T12:16:55;99937.53;;;24.69;58.66
43312;BME280;30041;48.300;16.352;2023-08-17T12:19:21;99932.03;;;24.63;58.54
43312;BME280;30041;48.300;16.352;2023-08-17T12:21:49;99935.00;;;24.62;58.36
43312;BME280;30041;48.300;16.352;2023-08-17T12:24:15;99936.66;;;24.63;58.47
43312;BME280;30041;48.300;16.352;2023-08-17T12:26:41;99936.31;;;24.59;58.53
43312;BME280;30041;48.300;16.352;2023-08-17T12:29:08;99939.03;;;24.59;58.21
43312;BME280;30041;48.300;16.352;2023-08-17T12:31:33;99929.84;;;24.60;58.45
43312;BME280;30041;48.300;16.352;2023-08-17T12:33:59;99920.88;;;24.60;58.77
43312;BME280;30041;48.300;16.352;2023-08-17T12:36:24;99919.50;;;24.57;58.46
43312;BME280;30041;48.300;16.352;2023-08-17T12:38:50;99917.59;;;24.58;58.58
43312;BME280;30041;48.300;16.352;2023-08-17T12:41:16;99916.78;;;24.57;58.62
43312;BME280;30041;48.300;16.352;2023-08-17T12:43:41;99908.91;;;24.56;58.68
43312;BME280;30041;48.300;16.352;2023-08-17T12:46:07;99909.75;;;24.56;58.53